Weather History for Frankfort, MI

Change the Weather History Date:

Friday, July 5, 2013

  Actual Average (KTVC) Record (KTVC)
Temperature  
Mean Temperature 68 °F 69 °F  
Max Temperature 77 °F 80 °F 96 °F (2012)
Min Temperature 60 °F 57 °F 38 °F (1965)
Degree Days  
Heating Degree Days 0 1  
Month to date heating degree days 6  
Since 1 June heating degree days 118  
Since 1 July heating degree days 6  
Cooling Degree Days 4 5  
Month to date cooling degree days 25  
Year to date cooling degree days 126  
Since 1 June cooling degree days 106  
Growing Degree Days 18 (Base 50)    
Moisture  
Dew Point 58 °F    
Average Humidity 65    
Maximum Humidity 91    
Minimum Humidity 46    
Precipitation  
Precipitation 0.00 in 0.09 in 4.01 in (1999)
Month to date precipitation 0.46  
Year to date precipitation 15.17  
Sea Level Pressure  
Sea Level Pressure 30.05 in    
Wind  
Wind Speed 4 mph (SSW)    
Max Wind Speed 12 mph    
Max Gust Speed 20 mph    
Visibility 10 miles    
Events      
T = Trace of Precipitation, MM = Missing Value Source: NWS Daily Summary

Daily Weather History Graph

Daily Weather History Graph

Search for Another Location

Airport:

Trip Planner

Search our weather history database for the weather conditions in past years. The results will help you decide how hot, cold, wet, or windy it might be!

Date:

Astronomy

Jul. 05, 2013 Rise Set
Actual Time 6:06 AM EDT 9:32 PM EDT
Civil Twilight 5:29 AM EDT 10:08 PM EDT
Nautical Twilight 4:41 AM EDT 10:56 PM EDT
Astronomical Twilight 3:40 AM EDT 11:57 PM EDT
Moon 4:07 AM EDT (7/5) 7:24 PM EDT (7/5)
Length of Visible Light 16h 39m
Length of Day
15h 26m
Waning Crescent, 6% of the Moon is Illuminated
Jul 5
Waning Crescent
Jul 8
New
Jul 15
First Quarter
Jul 22
Full
Jul 29
Last Quarter

Hourly Weather History & Observations

Time (EDT) Temp. Dew Point Humidity Pressure Visibility Wind Dir Wind Speed Gust Speed Precip Events Conditions
12:16 AM 65.8 °F 57.0 °F 73% 30.06 in 10.0 mi Calm Calm - N/A   Clear
12:36 AM 68.4 °F 59.0 °F 72% 30.06 in 10.0 mi SSW 3.5 mph - N/A   Clear
12:56 AM 68.4 °F 59.2 °F 72% 30.06 in 10.0 mi SSW 3.5 mph - N/A   Clear
1:16 AM 68.9 °F 59.7 °F 72% 30.06 in 10.0 mi South 4.6 mph - N/A   Clear
1:36 AM 68.9 °F 59.9 °F 73% 30.06 in 10.0 mi South 4.6 mph - N/A   Clear
1:56 AM 68.9 °F 60.1 °F 73% 30.06 in 10.0 mi South 5.8 mph - N/A   Clear
2:17 AM 68.5 °F 60.1 °F 74% 30.05 in 10.0 mi SSW 6.9 mph - N/A   Clear
2:37 AM 68.9 °F 60.3 °F 74% 30.06 in 10.0 mi SSW 3.5 mph - N/A   Clear
2:52 AM 68.9 °F 60.3 °F 74% 30.06 in 10.0 mi South 4.6 mph - N/A   Clear
3:12 AM 68.9 °F 60.4 °F 74% 30.05 in 10.0 mi South 4.6 mph - N/A   Clear
3:32 AM 68.5 °F 60.4 °F 75% 30.05 in 10.0 mi South 3.5 mph - N/A   Clear
3:52 AM 68.7 °F 60.4 °F 75% 30.05 in 10.0 mi SSW 4.6 mph - N/A   Clear
4:12 AM 68.2 °F 60.3 °F 76% 30.05 in 10.0 mi South 5.8 mph - N/A   Clear
4:32 AM 68.0 °F 60.3 °F 76% 30.05 in 10.0 mi Calm Calm - N/A   Clear
4:52 AM 67.1 °F 60.1 °F 78% 30.05 in 10.0 mi Calm Calm - N/A   Clear
5:12 AM 66.9 °F 60.3 °F 79% 30.05 in 10.0 mi Calm Calm - N/A   Clear
5:33 AM 66.0 °F 59.9 °F 81% 30.05 in 10.0 mi Calm Calm - N/A   Clear
5:53 AM 61.5 °F 57.9 °F 88% 30.05 in 10.0 mi Calm Calm - N/A   Clear
6:13 AM 60.6 °F 57.6 °F 90% 30.05 in 7.0 mi Calm Calm - N/A   Clear
6:33 AM 60.8 °F 58.1 °F 91% 30.05 in 5.0 mi Calm Calm - N/A   Clear
6:53 AM 60.4 °F 57.6 °F 90% 30.06 in 7.0 mi Calm Calm - N/A   Clear
7:13 AM 60.3 °F 57.4 °F 90% 30.06 in 5.0 mi Calm Calm - N/A   Clear
7:33 AM 60.6 °F 58.1 °F 91% 30.06 in 5.0 mi Calm Calm - N/A   Clear
7:53 AM 64.8 °F 60.6 °F 86% 30.06 in 7.0 mi ESE 5.8 mph - N/A   Clear
8:13 AM 67.1 °F 60.8 °F 80% 30.07 in 10.0 mi ESE 3.5 mph - N/A   Clear
8:34 AM 68.5 °F 61.0 °F 77% 30.07 in 10.0 mi Calm Calm - N/A   Clear
8:54 AM 70.2 °F 61.7 °F 74% 30.07 in 10.0 mi Calm Calm - N/A   Clear
9:14 AM 72.5 °F 62.1 °F 70% 30.08 in 10.0 mi SW 5.8 mph - N/A   Clear
9:34 AM 72.7 °F 61.7 °F 68% 30.08 in 10.0 mi SSW 6.9 mph - N/A   Clear
9:54 AM 73.4 °F 61.7 °F 67% 30.08 in 10.0 mi SW 6.9 mph - N/A   Clear
10:14 AM 73.6 °F 61.5 °F 66% 30.08 in 10.0 mi SSW 4.6 mph - N/A   Clear
10:34 AM 74.3 °F 61.7 °F 65% 30.08 in 10.0 mi South 5.8 mph - N/A   Clear
10:54 AM 75.2 °F 61.9 °F 63% 30.08 in 10.0 mi SW 8.1 mph - N/A   Clear
11:14 AM 74.5 °F 61.7 °F 64% 30.08 in 10.0 mi SSW 4.6 mph - N/A   Clear
11:35 AM 75.6 °F 61.5 °F 62% 30.08 in 10.0 mi South 8.1 mph - N/A   Clear
11:55 AM 75.0 °F 61.2 °F 62% 30.08 in 10.0 mi SSW 8.1 mph - N/A   Clear
12:15 PM 74.7 °F 60.8 °F 62% 30.08 in 10.0 mi SW 10.4 mph - N/A   Clear
12:35 PM 76.1 °F 61.2 °F 60% 30.08 in 10.0 mi SW 9.2 mph - N/A   Clear
12:55 PM 75.9 °F 60.8 °F 59% 30.07 in 10.0 mi SSW 8.1 mph 16.1 mph N/A   Clear
1:15 PM 76.6 °F 60.4 °F 57% 30.07 in 10.0 mi SW 8.1 mph - N/A   Clear
1:35 PM 77.0 °F 60.4 °F 56% 30.07 in 10.0 mi SW 6.9 mph - N/A   Clear
1:55 PM 76.6 °F 60.1 °F 56% 30.07 in 10.0 mi WSW 9.2 mph - N/A   Clear
2:15 PM 76.8 °F 60.4 °F 57% 30.06 in 10.0 mi West 9.2 mph - N/A   Clear
2:36 PM 77.0 °F 60.6 °F 57% 30.05 in 10.0 mi SSW 6.9 mph - N/A   Clear
2:56 PM 77.4 °F 60.3 °F 55% 30.05 in 10.0 mi SW 6.9 mph - N/A   Clear
3:16 PM 77.0 °F 59.2 °F 54% 30.05 in 10.0 mi SW 9.2 mph - N/A   Clear
3:36 PM 76.5 °F 59.2 °F 55% 30.05 in 10.0 mi WSW 10.4 mph - N/A   Clear
3:56 PM 76.5 °F 59.4 °F 55% 30.05 in 10.0 mi SW 9.2 mph - N/A   Clear
4:16 PM 75.7 °F 59.7 °F 57% 30.05 in 10.0 mi SW 9.2 mph 16.1 mph N/A   Clear
4:36 PM 75.9 °F 59.0 °F 56% 30.04 in 10.0 mi SW 9.2 mph 16.1 mph N/A   Clear
4:56 PM 76.3 °F 58.5 °F 54% 30.04 in 10.0 mi SW 9.2 mph 17.3 mph N/A   Clear
5:16 PM 77.0 °F 58.3 °F 52% 30.03 in 10.0 mi SW 11.5 mph 19.6 mph N/A   Clear
5:37 PM 75.9 °F 58.3 °F 54% 30.03 in 10.0 mi SW 9.2 mph 16.1 mph N/A   Clear
5:52 PM 75.7 °F 56.7 °F 51% 30.03 in 10.0 mi SW 8.1 mph 18.4 mph N/A   Clear
6:12 PM 75.2 °F 53.2 °F 46% 30.03 in 10.0 mi SSW 8.1 mph 17.3 mph N/A   Clear
6:32 PM 73.9 °F 55.0 °F 52% 30.03 in 10.0 mi SW 8.1 mph - N/A   Clear
6:52 PM 73.9 °F 54.0 °F 50% 30.02 in 10.0 mi SSW 9.2 mph - N/A   Clear
7:12 PM 73.6 °F 54.5 °F 51% 30.02 in 10.0 mi SSW 8.1 mph - N/A   Clear
7:32 PM 73.4 °F 54.1 °F 51% 30.02 in 10.0 mi SW 5.8 mph - N/A   Clear
7:52 PM 73.4 °F 53.8 °F 50% 30.02 in 10.0 mi SSW 5.8 mph - N/A   Clear
8:12 PM 73.4 °F 53.6 °F 50% 30.02 in 10.0 mi SW 8.1 mph - N/A   Clear
8:33 PM 72.3 °F 53.6 °F 52% 30.02 in 10.0 mi SW 6.9 mph - N/A   Clear
8:53 PM 71.6 °F 53.8 °F 53% 30.03 in 10.0 mi SW 5.8 mph - N/A   Clear
9:13 PM 71.1 °F 53.8 °F 54% 30.03 in 10.0 mi WSW 3.5 mph - N/A   Clear
9:33 PM 70.3 °F 52.7 °F 53% 30.02 in 10.0 mi SW 3.5 mph - N/A   Clear
9:53 PM 70.7 °F 51.8 °F 51% 30.03 in 10.0 mi SSW 3.5 mph - N/A   Clear
10:13 PM 70.5 °F 52.7 °F 53% 30.03 in 10.0 mi Calm Calm - N/A   Clear
10:33 PM 70.0 °F 54.0 °F 57% 30.03 in 10.0 mi Calm Calm - N/A   Clear
10:53 PM 70.2 °F 54.5 °F 57% 30.03 in 10.0 mi Calm Calm - N/A   Clear
11:13 PM 71.1 °F 54.5 °F 56% 30.03 in 10.0 mi Calm Calm - N/A   Clear
11:33 PM 71.4 °F 54.5 °F 55% 30.03 in 10.0 mi South 4.6 mph - N/A   Clear
11:55 PM 71.2 °F 54.3 °F 55% 30.03 in 10.0 mi SSE 4.6 mph - N/A   Clear